KL   EN   DA


ASIAQ
Weather Now GREENLAND SURVEY
Sorting:
Along the coast
Alphabetical
Location Updated [WGT/WGST] Temperature [°C] Wind [m/s] Air pressure [hPa] Relative humidity [%] Precipitation [mm]
PresentWind chillSpeedMax
Qaanaaq06.11 03:00-15,6-20,80,6 ⇖1,51039530,0
Kitsissut20.11 06:00-13,2-18,82,6 ⇐3,6103982n/a
Kitsissorsuit20.11 06:00-11,7-21,98,8 ⇐11,8103251n/a
Upernavik20.11 06:00-14,5-23,45,4 ⇐6,81018660,0
Qaarsut27.10 06:00-0,7-7,37,1 ⇖8,71023810,1
Nuussuaq20.11 05:00-9,6-14,52,6 ⇐4,1102957n/a
Qeqertarsuaq20.11 06:00-10,4-17,94,9 ⇐6,5103010,0
Ilulissat20.11 06:00-14,6-21,41,3 ⇙2,41027320,0
Qasigiannguit20.11 06:00-16,9-22,22,0 ⇓3,11027500,0
Aasiaat20.11 06:00-9,2-19,811,6 ⇙14,41026650,0
Attu20.11 06:00-10,2-22,214,4 ⇙17,5102567n/a
Kangerlussuaq20.11 06:00-32,6-46,45,6 ⇙6,51022690,0
Sisimiut20.11 06:00-6,6-12,03,6 ⇒6,31023560,0
Maniitsoq20.11 06:00-4,6-10,64,9 ⇙6,01018630,0
Sioralik20.11 06:00-3,5-10,77,7 ⇙9,8102056n/a
Niaqornaa19.11 13:30-8,5-15,85,7 ⇙7,3101456n/a
Kapisillit20.11 05:00-6,6-11,53,1 ⇐4,81013530,0
Nuuk Skibakke/Sisorarfiit20.11 06:00-1,8-6,33,7 ⇖5,9n/a19n/a
Nuuk Airport20.11 06:00-5,3-9,71,1 ⇖3,1101141n/a
Nuuk City20.11 06:00-3,3-5,81,7 ⇐3,21011640,0
Nuuk, Qinngorput19.11 13:30-5,6-10,80,9 ⇗1,9100750n/a
Nuuk Siorarsiorfik19.11 13:40-4,40,00,9 ⇘1,8101150n/a
Ukiivik20.11 04:00-1,8-5,32,6 ⇖3,1101973n/a
Paamiut20.11 06:000,1-2,80,2 ⇙1,1101741n/a
Narsarsuaq20.11 06:001,6-5,411,6 ⇙15,71019380,0
Narsaq20.11 05:00-1,4-4,70,8 ⇐2,01018690,0
Nunarsuit20.11 06:000,4-2,62,6 ⇖3,1101874n/a
Qaqortoq20.11 06:001,9-2,65,1 ⇐8,1986512,0
Nanortalik31.12 20:00n/an/a ⇓n/an/an/an/a
Angisoq20.11 06:003,40,53,1 ⇓5,7101950n/a
Prins Christian Sund20.11 06:00-0,7-9,515,8 ⇓22,11018600,1
Ikermiuarsuk20.11 06:00n/a10,3 ⇓13,4102658n/a
Ikermit20.11 06:00-4,7-13,09,3 ⇘10,8102562n/a
Kulusuk20.11 06:00-3,0-9,66,6 ⇐10,51030630,0
Tasiilaq31.12 20:00n/an/a ⇓n/an/an/an/a
Aputiteeq20.11 06:00-4,7n/a ⇓n/a103461n/a
Ittoqqortoormiit31.12 20:00n/an/a ⇓n/an/an/an/a
Nerlerit Inaat20.11 06:00-9,6-19,79,9 ⇓18,4103767n/a
Daneborg20.11 06:00-13,6-25,210,3 ⇓13,4104063n/a
Danmarkshavn20.11 06:00-15,6-26,98,5 ⇘10,31042590,1
Henrik Krøyer Holme20.11 02:00-14,7-27,311,8 ⇓16,5104066n/a
Station Nord20.11 06:00-25,2-33,93,1 ⇒3,6104282n/a
Kap Morris Jesup20.11 06:00-30,1-37,82,1 ⇖2,6104676n/a

Advanced version
Data source - Operated by - Disclaimer